x

Sacrifice Island, Mexico (sacv4) Weather Station

4:00pm - Fri 25th Jul 2014 All times are CDT. -5 hours from GMT.

  • Wind
    2mph, 5mph gusts
  • Air Temp 85°f
  • Sea Pressure 1014.6mb
  • Sacrifice Island, Mexico
  • Sacrifice Island, Mexico

More Historic Weather Station data

Upgrade to MSW Pro to gain access to the past 30 days of data for over 8000 Wavebouys and Weather Stations around the globe.

Join Pro

Comparision Forecast

View Surf forecast
   
Fri 07/25 4:00pm 2 5 mph 1014.6mb 85f
3:00pm 5 7 mph 1015.4mb 85f
2:00pm 3 7 mph 1016.2mb 85f
1:00pm 2 5 mph 1016.5mb 85f
12:00pm 2 3 mph 1016.7mb 84f
11:00am  -  1 mph 1017.1mb 84f
10:00am 7 8 mph 1017.2mb 82f
9:00am 5 6 mph 1016.7mb 81f
8:00am 5 6 mph 1015.8mb 80f
7:00am 5 6 mph 1015.3mb 80f
6:00am 3
mph
1014.8mb 80f
5:00am 3
mph
1014.7mb 80f
4:00am 3
mph
1015.4mb 81f
3:00am 3 5 mph 1015.7mb 82f
2:00am 1 2 mph 1016.4mb 83f
1:00am 3 5 mph 1016.8mb 83f
12:00am 3 6 mph 1016.8mb 83f
Thu 07/24 11:00pm 3 6 mph 1016.2mb 83f
10:00pm 3 7 mph 1015.8mb 83f
9:00pm 2 6 mph 1014.9mb 83f
8:00pm 1 5 mph 1014.3mb 83f
7:00pm 1 2 mph 1013.6mb 85f
6:00pm 2 5 mph 1013.5mb 85f
5:00pm 3 7 mph 1013.6mb 87f
4:00pm 1 3 mph 1013.8mb 87f
3:00pm 2 3 mph 1014.7mb 86f
2:00pm 7 8 mph 1015.2mb 85f
1:00pm 3 6 mph 1015.8mb 84f
12:00pm 6
mph
1016.3mb 83f
11:00am 7 8 mph 1016.2mb 80f
10:00am 11 14 mph 1016.5mb 76f
9:00am 8 10 mph 1016.9mb 74f
8:00am 16 17 mph 1016.4mb 73f
7:00am 10 11 mph 1017.1mb 73f
6:00am 7 8 mph 1016.8mb 73f
5:00am 14 24 mph 1016.9mb 72f
4:00am 7
mph
1014.5mb 82f
3:00am 9
mph
1014.6mb 82f
2:00am 8
mph
1015.2mb 84f
1:00am 5 6 mph 1015.8mb 84f
12:00am 3 5 mph 1016.1mb 84f
Wed 07/23 11:00pm 2 5 mph 1016.1mb 84f
10:00pm 1 2 mph 1016mb 84f
9:00pm 3 6 mph 1015.4mb 84f
8:00pm  -  2 mph 1014.9mb 84f
7:00pm 3 8 mph 1014.2mb 85f
6:00pm 5 8 mph 1013.6mb 86f
5:00pm 6 8 mph 1013.9mb 85f
4:00pm 2 5 mph 1014.6mb 85f
3:00pm 8 11 mph 1015mb 85f
2:00pm 7 11 mph 1015.7mb 85f
1:00pm 9 11 mph 1016.4mb 84f
12:00pm 8 9 mph 1016.5mb 84f
11:00am 7 8 mph 1016.4mb 83f
10:00am 8 9 mph 1016.1mb 83f
9:00am 11
mph
1015.9mb 82f
8:00am 10 11 mph 1016mb 79f
7:00am 9 10 mph 1015.6mb 77f
6:00am 8 10 mph 1015.6mb 77f
5:00am 8 10 mph 1015.6mb 78f
4:00am 5
mph
1015.8mb 79f
3:00am 10 11 mph 1016.2mb 77f
2:00am 3 7 mph 1016.3mb 80f
1:00am 7 9 mph 1016.1mb 85f
12:00am 2 6 mph 1016.7mb 85f
Tue 07/22 11:00pm 3 7 mph 1016.5mb 85f
10:00pm 7 9 mph 1015.4mb 85f
9:00pm 3 6 mph 1014.7mb 85f
8:00pm 3 6 mph 1014.1mb 85f
7:00pm 5 7 mph 1013.6mb 86f
6:00pm 1 3 mph 1013.6mb 87f
5:00pm 7 9 mph 1013.9mb 86f
4:00pm 3 6 mph 1014.5mb 86f
3:00pm 6 9 mph 1015.1mb 86f
2:00pm 7 9 mph 1015.6mb 86f
1:00pm 5 6 mph 1016.2mb 85f
12:00pm 3 6 mph 1016.4mb 86f
11:00am 2 5 mph 1016.3mb 85f
10:00am 2 5 mph 1016.3mb 85f
9:00am 3 5 mph 1015.8mb 85f
8:00am 2 3 mph 1015.6mb 85f
7:00am 2 3 mph 1015mb 83f
6:00am  -  2 mph 1014.3mb 83f
5:00am  -  1 mph 1014mb 83f
4:00am 3
mph
1014.3mb 83f
3:00am  -  1 mph 1014.5mb 84f
2:00am 1 2 mph 1015.2mb 84f
1:00am 2 6 mph 1015.6mb 85f
12:00am 3 6 mph 1015.8mb 85f
Mon 07/21 11:00pm  -  3 mph 1015.4mb 85f